createdAt,value
2022-10-11T00:02:14.688Z,100.00
2022-10-11T00:04:42.526Z,100.00
2022-10-11T00:07:10.748Z,100.00
2022-10-11T00:09:38.606Z,100.00
2022-10-11T00:12:06.970Z,100.00
2022-10-11T00:14:35.029Z,100.00
2022-10-11T00:17:02.814Z,100.00
2022-10-11T00:19:32.001Z,100.00
2022-10-11T00:21:59.782Z,100.00
2022-10-11T00:24:27.640Z,100.00
2022-10-11T00:26:55.433Z,100.00
2022-10-11T00:29:23.696Z,100.00
2022-10-11T00:31:51.537Z,100.00
2022-10-11T00:34:19.409Z,100.00
2022-10-11T00:36:48.624Z,100.00
2022-10-11T00:39:16.493Z,100.00
2022-10-11T00:41:44.289Z,100.00
2022-10-11T00:44:15.947Z,100.00
2022-10-11T00:46:46.293Z,100.00
2022-10-11T00:49:19.538Z,100.00
2022-10-11T00:51:53.521Z,100.00
2022-10-11T00:54:25.282Z,100.00
2022-10-11T00:56:58.553Z,100.00
2022-10-11T00:59:30.627Z,100.00
2022-10-11T01:01:58.756Z,100.00
2022-10-11T01:04:26.564Z,100.00
2022-10-11T01:06:56.024Z,100.00
2022-10-11T01:09:23.892Z,100.00
2022-10-11T01:11:54.902Z,100.00
2022-10-11T01:14:43.927Z,100.00
2022-10-11T01:17:22.716Z,100.00
2022-10-11T01:20:28.066Z,100.00
2022-10-11T01:23:28.887Z,100.00
2022-10-11T01:26:16.861Z,100.00
2022-10-11T01:28:50.577Z,100.00
2022-10-11T01:31:26.465Z,100.00
2022-10-11T01:34:00.771Z,100.00
2022-10-11T01:36:32.844Z,100.00
2022-10-11T01:39:05.387Z,100.00
2022-10-11T01:41:41.003Z,100.00
2022-10-11T01:44:11.488Z,100.00
2022-10-11T01:46:41.830Z,100.00
2022-10-11T01:49:09.575Z,100.00
2022-10-11T01:51:42.986Z,100.00
2022-10-11T01:54:44.363Z,100.00
2022-10-11T01:57:37.226Z,100.00
2022-10-11T02:00:11.306Z,100.00
2022-10-11T02:02:53.609Z,100.00
2022-10-11T02:05:29.537Z,100.00
2022-10-11T02:08:03.100Z,100.00
2022-10-11T02:10:36.975Z,100.00
2022-10-11T02:13:10.303Z,100.00
2022-10-11T02:15:41.640Z,100.00
2022-10-11T02:18:16.643Z,100.00
2022-10-11T02:20:46.542Z,100.00
2022-10-11T02:23:18.770Z,100.00
2022-10-11T02:25:48.358Z,100.00
2022-10-11T02:28:19.804Z,100.00
2022-10-11T02:30:50.563Z,100.00
2022-10-11T02:33:24.961Z,100.00
2022-10-11T02:35:59.835Z,100.00
2022-10-11T02:38:35.159Z,100.00
2022-10-11T02:41:12.333Z,100.00
2022-10-11T02:43:44.613Z,100.00
2022-10-11T02:46:17.492Z,100.00
2022-10-11T02:48:46.956Z,100.00
2022-10-11T02:51:15.538Z,100.00
2022-10-11T02:53:43.368Z,100.00
2022-10-11T02:56:11.250Z,100.00
2022-10-11T02:58:39.118Z,100.00
2022-10-11T03:01:07.311Z,100.00
2022-10-11T03:03:35.248Z,100.00
2022-10-11T03:06:05.744Z,100.00
2022-10-11T03:08:33.938Z,100.00
2022-10-11T03:11:01.867Z,100.00
2022-10-11T03:13:29.724Z,100.00
2022-10-11T03:16:03.398Z,100.00
2022-10-11T03:18:31.815Z,100.00
2022-10-11T03:20:59.673Z,100.00
2022-10-11T03:23:28.881Z,100.00
2022-10-11T03:25:56.669Z,100.00
2022-10-11T03:28:24.545Z,100.00
2022-10-11T03:30:52.641Z,100.00
2022-10-11T03:33:21.441Z,100.00
2022-10-11T03:35:50.164Z,100.00
2022-10-11T03:38:20.176Z,100.00
2022-10-11T03:40:49.559Z,100.00
2022-10-11T03:43:17.368Z,100.00
2022-10-11T03:45:45.223Z,100.00
2022-10-11T03:48:13.731Z,100.00
2022-10-11T03:50:41.725Z,100.00
2022-10-11T03:53:10.056Z,100.00
2022-10-11T03:55:40.109Z,100.00
2022-10-11T03:58:09.570Z,100.00
2022-10-11T04:00:38.002Z,100.00
2022-10-11T04:03:05.883Z,100.00
2022-10-11T04:05:33.820Z,100.00
2022-10-11T04:08:01.694Z,100.00
2022-10-11T04:10:31.027Z,100.00
2022-10-11T04:12:58.896Z,100.00
2022-10-11T04:15:28.136Z,100.00
2022-10-11T04:17:56.045Z,100.00
2022-10-11T04:20:24.142Z,100.00
2022-10-11T04:22:51.992Z,100.00
2022-10-11T04:25:19.896Z,100.00
2022-10-11T04:27:47.877Z,100.00
2022-10-11T04:30:16.160Z,100.00
2022-10-11T04:32:46.220Z,100.00
2022-10-11T04:35:14.622Z,100.00
2022-10-11T04:37:42.499Z,100.00
2022-10-11T04:40:11.693Z,100.00
2022-10-11T04:42:39.551Z,100.00
2022-10-11T04:45:09.397Z,100.00
2022-10-11T04:47:37.273Z,100.00
2022-10-11T04:50:07.512Z,100.00
2022-10-11T04:52:35.383Z,100.00
2022-10-11T04:55:03.201Z,100.00
2022-10-11T04:57:31.064Z,100.00
2022-10-11T04:59:58.938Z,100.00
2022-10-11T05:02:27.176Z,100.00
2022-10-11T05:04:55.119Z,100.00
2022-10-11T05:07:24.421Z,100.00
2022-10-11T05:09:52.504Z,100.00
2022-10-11T05:12:20.362Z,100.00
2022-10-11T05:14:48.203Z,100.00
2022-10-11T05:17:16.113Z,100.00
2022-10-11T05:19:43.967Z,100.00
2022-10-11T05:22:11.828Z,100.00
2022-10-11T05:24:41.071Z,100.00
2022-10-11T05:27:09.059Z,100.00
2022-10-11T05:29:36.952Z,100.00
2022-10-11T05:32:05.016Z,100.00
2022-10-11T05:34:32.841Z,100.00
2022-10-11T05:37:00.623Z,100.00
2022-10-11T05:39:28.453Z,100.00
2022-10-11T05:41:58.006Z,100.00
2022-10-11T05:44:26.034Z,100.00
2022-10-11T05:46:53.973Z,100.00
2022-10-11T05:49:21.819Z,100.00
2022-10-11T05:51:49.640Z,100.00
2022-10-11T05:54:17.550Z,100.00
2022-10-11T05:56:45.388Z,100.00
2022-10-11T05:59:14.676Z,100.00
2022-10-11T06:01:42.522Z,100.00
2022-10-11T06:04:11.703Z,100.00
2022-10-11T06:06:39.510Z,100.00
2022-10-11T06:09:07.309Z,100.00
2022-10-11T06:11:35.192Z,100.00
2022-10-11T06:14:03.045Z,100.00
2022-10-11T06:16:32.384Z,100.00
2022-10-11T06:19:00.251Z,100.00
2022-10-11T06:21:28.166Z,100.00
2022-10-11T06:24:01.189Z,100.00
2022-10-11T06:26:30.350Z,100.00
2022-10-11T06:28:58.978Z,100.00
2022-10-11T06:31:27.210Z,100.00
2022-10-11T06:33:56.429Z,100.00
2022-10-11T06:36:24.380Z,100.00
2022-10-11T06:38:52.928Z,100.00
2022-10-11T06:41:23.650Z,100.00
2022-10-11T06:43:52.199Z,100.00
2022-10-11T06:46:21.153Z,100.00
2022-10-11T06:48:49.826Z,100.00
2022-10-11T06:51:21.596Z,100.00
2022-10-11T06:53:50.148Z,100.00
2022-10-11T06:56:18.413Z,100.00
2022-10-11T06:58:46.381Z,100.00
2022-10-11T07:01:19.064Z,100.00
2022-10-11T07:03:47.531Z,100.00
2022-10-11T07:06:17.822Z,100.00
2022-10-11T07:08:46.868Z,100.00
2022-10-11T07:11:17.000Z,100.00
2022-10-11T07:13:49.401Z,100.00
2022-10-11T07:16:17.342Z,100.00
2022-10-11T07:18:45.381Z,100.00
2022-10-11T07:21:15.708Z,100.00
2022-10-11T07:23:43.648Z,100.00
2022-10-11T07:26:13.315Z,100.00
2022-10-11T07:28:42.309Z,100.00
2022-10-11T07:31:13.613Z,100.00
2022-10-11T07:33:41.631Z,100.00
2022-10-11T07:36:10.982Z,100.00
2022-10-11T07:38:41.428Z,100.00
2022-10-11T07:41:10.135Z,100.00
2022-10-11T07:43:40.135Z,100.00
2022-10-11T07:46:09.167Z,100.00
2022-10-11T07:48:38.083Z,100.00
2022-10-11T07:51:08.745Z,100.00
2022-10-11T07:53:41.026Z,100.00
2022-10-11T07:56:09.685Z,100.00
2022-10-11T07:58:39.064Z,100.00
2022-10-11T08:01:07.643Z,100.00
2022-10-11T08:03:36.038Z,100.00
2022-10-11T08:06:06.224Z,100.00
2022-10-11T08:08:34.719Z,100.00
2022-10-11T08:11:02.667Z,100.00
2022-10-11T08:13:30.480Z,100.00
2022-10-11T08:16:00.338Z,100.00
2022-10-11T08:18:28.293Z,100.00
2022-10-11T08:20:56.171Z,100.00
2022-10-11T08:23:24.035Z,100.00
2022-10-11T08:25:58.174Z,100.00
2022-10-11T08:28:27.211Z,100.00
2022-10-11T08:30:56.094Z,100.00
2022-10-11T08:33:26.835Z,100.00
2022-10-11T08:35:57.111Z,100.00
2022-10-11T08:38:25.050Z,100.00
2022-10-11T08:40:56.105Z,100.00
2022-10-11T08:43:39.203Z,100.00
2022-10-11T08:46:09.709Z,100.00
2022-10-11T08:48:43.159Z,100.00
2022-10-11T08:51:17.413Z,100.00
2022-10-11T08:53:50.423Z,100.00
2022-10-11T08:56:20.135Z,100.00
2022-10-11T08:58:52.984Z,100.00
2022-10-11T09:01:24.760Z,100.00
2022-10-11T09:03:54.324Z,100.00
2022-10-11T09:06:36.406Z,100.00
2022-10-11T09:09:30.085Z,100.00
2022-10-11T09:12:13.803Z,100.00
2022-10-11T09:15:02.048Z,100.00
2022-10-11T09:17:42.957Z,100.00
2022-10-11T09:20:32.111Z,100.00
2022-10-11T09:23:05.872Z,100.00
2022-10-11T09:25:36.435Z,100.00
2022-10-11T09:28:18.883Z,100.00
2022-10-11T09:30:53.782Z,100.00
2022-10-11T09:33:32.450Z,100.00
2022-10-11T09:36:04.142Z,100.00
2022-10-11T09:38:41.241Z,100.00
2022-10-11T09:41:18.963Z,100.00
2022-10-11T09:43:48.688Z,100.00
2022-10-11T09:46:23.724Z,100.00
2022-10-11T09:48:54.696Z,100.00
2022-10-11T09:51:28.474Z,100.00
2022-10-11T09:53:59.810Z,100.00
2022-10-11T09:56:29.950Z,100.00
2022-10-11T09:59:09.373Z,100.00
2022-10-11T10:01:37.803Z,100.00
2022-10-11T10:04:09.509Z,100.00
2022-10-11T10:06:39.686Z,100.00
2022-10-11T10:09:27.950Z,100.00
2022-10-11T10:11:56.474Z,100.00
2022-10-11T10:14:28.440Z,100.00
2022-10-11T10:17:05.126Z,98.05
2022-10-11T10:19:44.741Z,99.63
2022-10-11T10:22:20.548Z,100.00
2022-10-11T10:24:51.304Z,100.00
2022-10-11T10:27:22.524Z,97.52
2022-10-11T10:30:16.006Z,95.12
2022-10-11T10:32:52.498Z,94.53
2022-10-11T10:35:30.318Z,94.74
2022-10-11T10:38:07.969Z,89.55
2022-10-11T10:40:42.104Z,92.28
2022-10-11T10:43:16.467Z,91.39
2022-10-11T10:46:04.009Z,90.22
2022-10-11T10:49:18.736Z,83.29
2022-10-11T10:51:40.659Z,86.07
2022-10-11T10:54:20.677Z,83.00
2022-10-11T10:56:53.992Z,81.47
2022-10-11T10:59:47.150Z,81.31
2022-10-11T11:02:39.575Z,81.54
2022-10-11T11:05:18.770Z,82.63
2022-10-11T11:07:51.264Z,80.55
2022-10-11T11:10:24.203Z,78.67
2022-10-11T11:13:04.289Z,80.13
2022-10-11T11:15:40.029Z,79.74
2022-10-11T11:18:28.582Z,78.95
2022-10-11T11:21:13.909Z,82.40
2022-10-11T11:23:49.125Z,78.50
2022-10-11T11:26:26.365Z,76.29
2022-10-11T11:29:12.414Z,78.91
2022-10-11T11:32:01.624Z,76.45
2022-10-11T11:34:36.994Z,77.90
2022-10-11T11:37:08.026Z,72.27
2022-10-11T11:39:43.475Z,66.79
2022-10-11T11:42:17.401Z,67.01
2022-10-11T11:44:47.967Z,64.18
2022-10-11T11:47:23.672Z,67.79
2022-10-11T11:49:58.379Z,68.54
2022-10-11T11:52:29.614Z,69.82
2022-10-11T11:55:10.407Z,72.32
2022-10-11T11:57:53.305Z,70.82
2022-10-11T12:00:23.267Z,71.39
2022-10-11T12:02:54.425Z,65.67
2022-10-11T12:05:25.456Z,59.10
2022-10-11T12:07:58.431Z,61.62
2022-10-11T12:10:31.249Z,66.87
2022-10-11T12:13:18.903Z,70.08
2022-10-11T12:16:00.127Z,71.99
2022-10-11T12:18:29.093Z,72.60
2022-10-11T12:21:06.888Z,70.44
2022-10-11T12:23:44.899Z,67.26
2022-10-11T12:26:33.491Z,65.18
2022-10-11T12:29:34.630Z,66.54
2022-10-11T12:32:48.075Z,67.05
2022-10-11T12:35:49.621Z,61.88
2022-10-11T12:38:21.714Z,63.75
2022-10-11T12:40:51.230Z,65.52
2022-10-11T12:43:37.620Z,62.42
2022-10-11T12:46:53.788Z,59.78
2022-10-11T12:49:29.199Z,63.35
2022-10-11T12:52:01.920Z,62.48
2022-10-11T12:55:00.388Z,65.09
2022-10-11T12:57:51.823Z,67.55
2022-10-11T13:00:23.762Z,67.74
2022-10-11T13:02:51.684Z,66.54
2022-10-11T13:05:26.307Z,66.94
2022-10-11T13:07:58.136Z,68.12
2022-10-11T13:10:30.295Z,68.29
2022-10-11T13:13:04.188Z,64.23
2022-10-11T13:15:32.618Z,63.37
2022-10-11T13:18:01.584Z,62.56
2022-10-11T13:20:37.490Z,63.55
2022-10-11T13:23:22.900Z,66.46
2022-10-11T13:25:51.299Z,64.37
2022-10-11T13:28:20.343Z,65.02
2022-10-11T13:30:51.425Z,65.63
2022-10-11T13:33:22.384Z,65.01
2022-10-11T13:35:53.395Z,60.19
2022-10-11T13:38:27.286Z,61.40
2022-10-11T13:40:56.452Z,59.23
2022-10-11T13:43:28.157Z,60.83
2022-10-11T13:45:58.243Z,57.97
2022-10-11T13:48:30.887Z,56.33
2022-10-11T13:51:09.167Z,57.85
2022-10-11T13:53:36.993Z,58.01
2022-10-11T13:56:08.476Z,55.27
2022-10-11T13:58:40.459Z,56.60
2022-10-11T14:01:19.096Z,56.69
2022-10-11T14:03:50.222Z,58.13
2022-10-11T14:06:19.547Z,56.61
2022-10-11T14:08:51.387Z,61.81
2022-10-11T14:11:34.884Z,61.71
2022-10-11T14:14:29.208Z,61.00
2022-10-11T14:16:58.344Z,61.08
2022-10-11T14:19:26.367Z,61.41
2022-10-11T14:21:55.595Z,59.52
2022-10-11T14:24:24.414Z,60.31
2022-10-11T14:26:54.543Z,60.78
2022-10-11T14:29:26.559Z,60.06
2022-10-11T14:32:03.994Z,60.91
2022-10-11T14:34:32.836Z,61.44
2022-10-11T14:37:02.282Z,57.32
2022-10-11T14:39:32.868Z,60.00
2022-10-11T14:42:00.783Z,61.76
2022-10-11T14:44:28.631Z,59.71
2022-10-11T14:46:56.477Z,60.28
2022-10-11T14:49:26.939Z,62.84
2022-10-11T14:51:56.754Z,58.59
2022-10-11T14:54:27.700Z,60.21
2022-10-11T14:56:58.086Z,59.35
2022-10-11T14:59:28.908Z,61.50
2022-10-11T15:01:56.918Z,61.22
2022-10-11T15:04:27.251Z,60.91
2022-10-11T15:06:55.777Z,61.88
2022-10-11T15:09:30.854Z,63.65
2022-10-11T15:11:59.243Z,63.76
2022-10-11T15:14:27.449Z,64.21
2022-10-11T15:16:56.231Z,63.77
2022-10-11T15:19:25.913Z,64.31
2022-10-11T15:21:54.277Z,65.45
2022-10-11T15:24:22.271Z,66.21
2022-10-11T15:26:51.501Z,66.16
2022-10-11T15:29:21.849Z,64.96
2022-10-11T15:31:50.260Z,66.56
2022-10-11T15:34:18.686Z,67.33
2022-10-11T15:36:47.100Z,68.78
2022-10-11T15:39:25.473Z,70.76
2022-10-11T15:41:54.881Z,71.19
2022-10-11T15:44:22.758Z,71.52
2022-10-11T15:46:50.929Z,71.41
2022-10-11T15:49:19.655Z,71.94
2022-10-11T15:51:47.619Z,73.20
2022-10-11T15:54:15.548Z,74.79
2022-10-11T15:56:43.866Z,75.36
2022-10-11T15:59:13.056Z,77.35
2022-10-11T16:01:40.997Z,78.23
2022-10-11T16:04:09.105Z,79.38
2022-10-11T16:06:37.040Z,80.96
2022-10-11T16:09:05.190Z,81.23
2022-10-11T16:11:33.074Z,81.98
2022-10-11T16:14:00.930Z,82.28
2022-10-11T16:16:30.445Z,83.54
2022-10-11T16:18:58.402Z,85.69
2022-10-11T16:21:26.336Z,86.63
2022-10-11T16:23:54.577Z,86.65
2022-10-11T16:26:22.538Z,87.71
2022-10-11T16:28:50.601Z,88.16
2022-10-11T16:31:20.848Z,88.28
2022-10-11T16:33:50.540Z,89.31
2022-10-11T16:36:35.968Z,88.57
2022-10-11T16:39:08.092Z,89.11
2022-10-11T16:41:36.411Z,90.57
2022-10-11T16:44:04.755Z,91.54
2022-10-11T16:46:34.088Z,93.14
2022-10-11T16:49:03.884Z,94.76
2022-10-11T16:51:31.752Z,96.89
2022-10-11T16:53:59.784Z,97.11
2022-10-11T16:56:28.156Z,97.27
2022-10-11T16:58:56.613Z,98.19
2022-10-11T17:01:24.884Z,99.11
2022-10-11T17:03:53.717Z,99.39
2022-10-11T17:06:24.515Z,99.53
2022-10-11T17:08:52.369Z,100.00
2022-10-11T17:11:21.628Z,100.00
2022-10-11T17:13:50.743Z,99.74
2022-10-11T17:16:19.167Z,100.00
2022-10-11T17:18:47.385Z,100.00
2022-10-11T17:21:17.327Z,100.00
2022-10-11T17:23:46.710Z,100.00
2022-10-11T17:26:18.039Z,100.00
2022-10-11T17:28:46.555Z,100.00
2022-10-11T17:31:14.447Z,100.00
2022-10-11T17:33:42.376Z,100.00
2022-10-11T17:36:21.710Z,100.00
2022-10-11T17:38:52.561Z,100.00
2022-10-11T17:41:21.275Z,100.00
2022-10-11T17:43:49.409Z,100.00
2022-10-11T17:46:18.545Z,100.00
2022-10-11T17:48:46.463Z,100.00
2022-10-11T17:51:16.654Z,100.00
2022-10-11T17:53:45.346Z,100.00
2022-10-11T17:56:18.725Z,100.00
2022-10-11T17:58:47.658Z,100.00
2022-10-11T18:01:18.063Z,100.00
2022-10-11T18:03:52.484Z,100.00
2022-10-11T18:06:21.140Z,100.00
2022-10-11T18:08:49.029Z,100.00
2022-10-11T18:11:20.879Z,100.00
2022-10-11T18:13:50.335Z,100.00
2022-10-11T18:16:20.691Z,100.00
2022-10-11T18:18:48.849Z,100.00
2022-10-11T18:21:18.440Z,100.00
2022-10-11T18:23:47.005Z,100.00
2022-10-11T18:26:16.960Z,100.00
2022-10-11T18:28:46.747Z,100.00
2022-10-11T18:31:17.753Z,100.00
2022-10-11T18:33:46.407Z,100.00
2022-10-11T18:36:16.274Z,100.00
2022-10-11T18:38:46.700Z,100.00
2022-10-11T18:41:18.155Z,100.00
2022-10-11T18:43:51.305Z,100.00
2022-10-11T18:46:20.290Z,100.00
2022-10-11T18:48:50.796Z,100.00
2022-10-11T18:51:20.099Z,100.00
2022-10-11T18:53:49.026Z,100.00
2022-10-11T18:56:20.567Z,100.00
2022-10-11T18:58:50.990Z,100.00
2022-10-11T19:01:19.940Z,100.00
2022-10-11T19:03:49.472Z,100.00
2022-10-11T19:06:20.881Z,100.00
2022-10-11T19:08:50.377Z,100.00
2022-10-11T19:11:21.612Z,100.00
2022-10-11T19:13:56.294Z,100.00
2022-10-11T19:16:24.366Z,100.00
2022-10-11T19:18:53.810Z,100.00
2022-10-11T19:21:22.104Z,100.00
2022-10-11T19:23:50.939Z,100.00
2022-10-11T19:26:21.149Z,100.00
2022-10-11T19:28:55.794Z,100.00
2022-10-11T19:31:23.862Z,100.00
2022-10-11T19:33:51.767Z,100.00
2022-10-11T19:36:20.133Z,100.00
2022-10-11T19:38:49.686Z,100.00
2022-10-11T19:41:20.208Z,100.00
2022-10-11T19:43:48.066Z,100.00
2022-10-11T19:46:38.031Z,100.00
2022-10-11T19:49:08.513Z,100.00
2022-10-11T19:51:38.269Z,100.00
2022-10-11T19:54:09.192Z,100.00
2022-10-11T19:56:37.547Z,100.00
2022-10-11T19:59:07.435Z,100.00
2022-10-11T20:01:37.963Z,100.00
2022-10-11T20:04:07.655Z,100.00
2022-10-11T20:06:39.579Z,100.00
2022-10-11T20:09:28.492Z,100.00
2022-10-11T20:11:56.110Z,100.00
2022-10-11T20:14:24.368Z,100.00
2022-10-11T20:16:54.021Z,100.00
2022-10-11T20:19:27.705Z,100.00
2022-10-11T20:21:57.397Z,100.00
2022-10-11T20:24:27.504Z,100.00
2022-10-11T20:26:55.342Z,100.00
2022-10-11T20:29:25.259Z,100.00
2022-10-11T20:31:56.191Z,100.00
2022-10-11T20:34:24.124Z,100.00
2022-10-11T20:36:52.271Z,100.00
2022-10-11T20:39:20.186Z,100.00
2022-10-11T20:41:48.034Z,100.00
2022-10-11T20:44:16.698Z,100.00
2022-10-11T20:46:44.768Z,100.00
2022-10-11T20:49:14.163Z,100.00
2022-10-11T20:51:43.410Z,100.00
2022-10-11T20:54:11.661Z,100.00
2022-10-11T20:56:40.433Z,100.00
2022-10-11T20:59:09.230Z,100.00
2022-10-11T21:01:39.582Z,100.00
2022-10-11T21:04:11.038Z,100.00
2022-10-11T21:06:40.485Z,100.00
2022-10-11T21:09:10.253Z,100.00
2022-10-11T21:11:40.904Z,100.00
2022-10-11T21:14:08.733Z,100.00
2022-10-11T21:16:36.653Z,100.00
2022-10-11T21:19:04.943Z,100.00
2022-10-11T21:21:32.970Z,100.00
2022-10-11T21:24:03.016Z,100.00
2022-10-11T21:26:31.878Z,100.00
2022-10-11T21:29:00.264Z,100.00
2022-10-11T21:31:33.525Z,100.00
2022-10-11T21:34:02.339Z,100.00
2022-10-11T21:36:30.615Z,100.00
2022-10-11T21:38:58.383Z,100.00
2022-10-11T21:41:29.841Z,100.00
2022-10-11T21:43:58.349Z,100.00
2022-10-11T21:46:42.005Z,100.00
2022-10-11T21:49:15.696Z,100.00
2022-10-11T21:51:43.726Z,100.00
2022-10-11T21:54:11.658Z,100.00
2022-10-11T21:56:40.850Z,100.00
2022-10-11T21:59:12.027Z,100.00
2022-10-11T22:01:40.999Z,100.00
2022-10-11T22:04:11.008Z,100.00
2022-10-11T22:06:39.590Z,100.00
2022-10-11T22:09:08.273Z,100.00
2022-10-11T22:11:36.516Z,100.00
2022-10-11T22:14:05.943Z,100.00
2022-10-11T22:16:35.029Z,100.00
2022-10-11T22:19:03.152Z,100.00
2022-10-11T22:21:31.031Z,100.00
2022-10-11T22:23:58.949Z,100.00
2022-10-11T22:26:30.615Z,100.00
2022-10-11T22:28:59.161Z,100.00
2022-10-11T22:31:29.366Z,100.00
2022-10-11T22:33:57.438Z,100.00
2022-10-11T22:36:25.324Z,100.00
2022-10-11T22:38:54.540Z,100.00
2022-10-11T22:41:22.413Z,100.00
2022-10-11T22:43:50.358Z,100.00
2022-10-11T22:46:18.974Z,100.00
2022-10-11T22:48:48.245Z,100.00
2022-10-11T22:51:16.073Z,100.00
2022-10-11T22:53:44.170Z,100.00
2022-10-11T22:56:12.027Z,100.00
2022-10-11T22:58:39.874Z,100.00
2022-10-11T23:01:09.662Z,100.00
2022-10-11T23:03:38.269Z,100.00
2022-10-11T23:06:07.777Z,100.00
2022-10-11T23:08:35.664Z,100.00
2022-10-11T23:11:05.011Z,100.00
2022-10-11T23:13:33.165Z,100.00
2022-10-11T23:16:01.073Z,100.00
2022-10-11T23:18:29.102Z,100.00
2022-10-11T23:21:00.844Z,100.00
2022-10-11T23:23:30.508Z,100.00
2022-10-11T23:26:02.969Z,100.00
2022-10-11T23:28:30.982Z,100.00
2022-10-11T23:30:59.080Z,100.00
2022-10-11T23:33:28.686Z,100.00
2022-10-11T23:35:56.596Z,100.00
2022-10-11T23:38:24.450Z,100.00
2022-10-11T23:40:53.749Z,100.00
2022-10-11T23:43:21.611Z,100.00
2022-10-11T23:45:49.599Z,100.00
2022-10-11T23:48:17.348Z,100.00
2022-10-11T23:50:45.185Z,100.00
2022-10-11T23:53:14.296Z,100.00
2022-10-11T23:55:43.486Z,100.00
2022-10-11T23:58:12.711Z,100.00
